Time;durP1;ratioP1;P1;durP2;ratioP2;P2;SDS_P1;SDS_P2;PMS_P1;PMS_P2;Temp;Humidity;BMP_temperature;BMP_pressure;BME280_temperature;BME280_humidity;BME280_pressure;Samples;Min_cycle;Max_cycle;Signal;HPM_P1;HPM_P2
2022/01/24 00:00:13;;;;;;;29.27;12.77;;;;;;;-4.49;69.36;101486.22;4490968;31;35093;-76
2022/01/24 00:03:00;;;;;;;27.33;10.88;;;;;;;-4.18;67.29;101483.69;4478796;31;35199;-77
2022/01/24 00:05:49;;;;;;;35.58;12.02;;;;;;;-4.18;66.98;101481.03;4491622;31;35520;-76
2022/01/24 00:08:36;;;;;;;36.22;14.52;;;;;;;-4.12;66.22;101480.34;4488329;31;35977;-76
2022/01/24 00:11:29;;;;;;;33.08;11.98;;;;;;;-4.25;66.57;101493.38;4488309;31;34172;-76
2022/01/24 00:14:48;;;;;;;35.65;13.70;;;;;;;-4.33;66.75;101485.38;4478039;31;34109;-76
2022/01/24 00:17:37;;;;;;;52.25;17.80;;;;;;;-5.03;69.65;101486.66;4487053;31;35606;-76
2022/01/24 00:29:27;;;;;;;25.77;9.55;;;;;;;-4.68;67.32;101511.44;4477822;31;34635;-76
2022/01/24 00:32:14;;;;;;;24.95;8.93;;;;;;;-5.89;72.15;101513.50;4480391;31;34941;-76
2022/01/24 00:35:00;;;;;;;27.98;9.52;;;;;;;-6.72;77.19;101513.03;4489397;31;35358;-76
2022/01/24 00:37:46;;;;;;;20.50;8.10;;;;;;;-6.55;77.25;101520.19;4481466;31;35367;-76
2022/01/24 00:40:37;;;;;;;20.48;8.18;;;;;;;-6.41;77.05;101522.31;4492932;31;34571;-76
2022/01/24 00:43:45;;;;;;;21.80;8.40;;;;;;;-6.02;74.77;101516.59;4469242;31;36011;-76
2022/01/24 00:46:41;;;;;;;22.33;8.88;;;;;;;-5.58;72.55;101526.34;4480853;31;34224;-76
2022/01/24 00:55:38;;;;;;;27.33;11.30;;;;;;;-5.25;68.13;101519.31;4488370;31;35094;-76
2022/01/24 00:58:24;;;;;;;35.35;12.13;;;;;;;-5.20;68.04;101519.69;4490848;31;33395;-76
2022/01/24 01:01:11;;;;;;;38.33;13.40;;;;;;;-5.17;67.77;101516.69;4489625;31;35310;-76
2022/01/24 01:03:57;;;;;;;37.90;11.95;;;;;;;-6.12;70.11;101515.84;4477860;31;34329;-76
2022/01/24 01:06:45;;;;;;;28.73;10.23;;;;;;;-6.70;73.84;101514.53;4492722;31;35033;-76
2022/01/24 01:18:49;;;;;;;26.65;8.60;;;;;;;-5.61;69.47;101498.13;4485214;31;35982;-76
2022/01/24 01:21:37;;;;;;;20.65;7.25;;;;;;;-5.56;69.34;101505.66;4478519;31;35829;-76
2022/01/24 01:24:25;;;;;;;20.33;8.13;;;;;;;-5.44;69.25;101507.87;4479169;31;33829;-76
2022/01/24 01:27:17;;;;;;;18.48;6.62;;;;;;;-5.50;69.47;101518.37;4465847;31;34616;-76
2022/01/24 01:30:12;;;;;;;23.15;7.82;;;;;;;-5.58;70.15;101518.31;4473582;31;35048;-76
2022/01/24 01:33:07;;;;;;;20.60;7.47;;;;;;;-5.35;68.74;101521.28;4488578;31;35731;-76
2022/01/24 01:36:19;;;;;;;18.50;7.03;;;;;;;-5.57;68.55;101522.69;4487997;31;34374;-76
2022/01/24 01:56:52;;;;;;;20.30;7.78;;;;;;;-7.04;74.29;101520.53;4479795;31;35582;-76
2022/01/24 01:59:38;;;;;;;19.85;7.07;;;;;;;-6.39;71.78;101515.00;4489719;31;33885;-76
2022/01/24 02:02:25;;;;;;;16.75;7.78;;;;;;;-7.06;74.62;101516.34;4488832;31;35478;-76
2022/01/24 02:05:11;;;;;;;15.07;7.18;;;;;;;-6.60;74.57;101511.81;4466893;31;35686;-76
2022/01/24 02:07:58;;;;;;;18.60;8.60;;;;;;;-7.10;75.99;101515.81;4493224;31;34474;-76
2022/01/24 02:10:45;;;;;;;20.00;8.02;;;;;;;-7.64;78.47;101519.31;4488352;31;34168;-76
2022/01/24 02:13:32;;;;;;;16.62;7.40;;;;;;;-7.66;78.83;101519.44;4472363;31;34373;-77
2022/01/24 02:22:28;;;;;;;20.88;7.18;;;;;;;-7.42;77.76;101544.72;4489786;31;35137;-76
2022/01/24 02:25:25;;;;;;;19.23;6.07;;;;;;;-7.49;75.80;101541.78;4486250;31;34580;-76
2022/01/24 02:28:13;;;;;;;17.23;7.68;;;;;;;-6.86;74.25;101538.37;4466299;31;35945;-76
2022/01/24 02:33:52;;;;;;;17.08;6.30;;;;;;;-6.63;71.79;101531.63;4489941;31;34536;-76
2022/01/24 02:36:41;;;;;;;16.27;6.03;;;;;;;-6.54;71.14;101526.38;4478221;31;35533;-75
2022/01/24 02:48:33;;;;;;;14.23;4.82;;;;;;;-6.66;71.44;101533.75;4491459;31;33544;-76
2022/01/24 02:54:16;;;;;;;15.93;5.70;;;;;;;-6.61;71.84;101536.78;4477905;31;35517;-76
2022/01/24 02:57:04;;;;;;;13.43;5.30;;;;;;;-6.47;71.73;101544.25;4479786;31;35059;-75
2022/01/24 02:59:50;;;;;;;11.73;4.97;;;;;;;-6.30;71.38;101531.91;4490735;31;34485;-75
2022/01/24 03:02:36;;;;;;;13.88;5.53;;;;;;;-6.19;71.05;101525.50;4479699;31;35005;-75
2022/01/24 03:05:23;;;;;;;20.12;6.15;;;;;;;-6.46;70.98;101534.41;4487455;31;34529;-75
2022/01/24 03:08:09;;;;;;;18.40;7.15;;;;;;;-6.45;70.44;101533.44;4477913;31;34250;-75
2022/01/24 03:10:58;;;;;;;15.10;5.78;;;;;;;-6.69;70.81;101537.53;4491301;31;34688;-75
2022/01/24 03:13:47;;;;;;;14.73;5.87;;;;;;;-7.54;74.59;101528.94;4491138;31;35989;-76
2022/01/24 03:16:33;;;;;;;17.37;6.47;;;;;;;-7.35;76.07;101543.97;4492387;31;34659;-76
2022/01/24 03:19:19;;;;;;;20.60;7.05;;;;;;;-8.15;78.31;101540.03;4489148;31;34315;-76
2022/01/24 03:22:08;;;;;;;15.77;5.68;;;;;;;-7.33;76.87;101547.34;4468559;31;34552;-76
2022/01/24 03:24:55;;;;;;;18.08;6.70;;;;;;;-8.30;80.77;101542.28;4488478;31;36421;-76
2022/01/24 03:27:41;;;;;;;15.45;6.90;;;;;;;-7.39;76.29;101558.59;4486749;31;35798;-75
2022/01/24 03:30:31;;;;;;;15.48;6.22;;;;;;;-8.10;80.74;101556.41;4483534;31;34042;-75
2022/01/24 03:33:17;;;;;;;14.80;5.70;;;;;;;-7.97;78.04;101554.28;4489655;31;35199;-75
2022/01/24 03:36:04;;;;;;;18.10;7.30;;;;;;;-7.10;75.04;101557.59;4489463;31;34899;-75
2022/01/24 03:38:50;;;;;;;24.52;9.13;;;;;;;-6.74;72.24;101565.66;4491028;31;35614;-75
2022/01/24 03:41:39;;;;;;;20.00;7.55;;;;;;;-6.87;71.85;101569.53;4480092;31;35286;-75
2022/01/24 03:44:27;;;;;;;22.17;7.57;;;;;;;-6.90;71.78;101564.50;4469836;31;33348;-75
2022/01/24 03:47:41;;;;;;;21.85;7.60;;;;;;;-6.85;71.69;101564.88;4480512;31;35838;-75
2022/01/24 03:50:26;;;;;;;15.32;6.57;;;;;;;-7.39;72.81;101563.91;4488202;31;34551;-75
2022/01/24 03:53:12;;;;;;;22.13;6.30;;;;;;;-6.85;71.18;101564.88;4488316;31;34183;-76
2022/01/24 03:55:59;;;;;;;20.20;6.50;;;;;;;-6.81;69.82;101562.75;4489466;31;34602;-75
2022/01/24 03:58:46;;;;;;;17.62;7.47;;;;;;;-6.93;69.97;101555.97;4478709;31;35634;-75
2022/01/24 04:01:33;;;;;;;17.42;6.25;;;;;;;-6.97;70.13;101563.44;4478414;31;34580;-76
2022/01/24 04:04:20;;;;;;;17.08;6.72;;;;;;;-7.02;70.67;101565.69;4475099;31;35111;-76
2022/01/24 04:07:06;;;;;;;16.92;6.40;;;;;;;-7.06;71.19;101567.81;4487688;31;35175;-76
2022/01/24 04:10:00;;;;;;;16.80;6.37;;;;;;;-7.02;71.17;101565.69;4492335;31;35059;-76
2022/01/24 04:12:49;;;;;;;21.58;6.62;;;;;;;-7.03;71.06;101569.31;4470747;31;34645;-76
2022/01/24 04:15:58;;;;;;;17.80;7.65;;;;;;;-6.98;70.89;101580.38;4484298;31;35044;-76
2022/01/24 04:21:37;;;;;;;21.15;6.25;;;;;;;-8.67;77.41;101582.87;4476090;31;35926;-75
2022/01/24 04:24:25;;;;;;;13.07;5.32;;;;;;;-9.46;85.21;101582.78;4477377;31;34882;-75
2022/01/24 04:27:17;;;;;;;14.60;5.43;;;;;;;-8.90;84.26;101584.94;4493274;31;35118;-76
2022/01/24 04:30:04;;;;;;;14.52;5.30;;;;;;;-7.91;80.16;101582.16;4466441;31;34652;-76
2022/01/24 04:32:51;;;;;;;18.02;5.37;;;;;;;-8.06;78.22;101586.22;4488742;31;35928;-76
2022/01/24 04:35:37;;;;;;;14.98;6.53;;;;;;;-7.53;76.95;101591.00;4484163;31;34223;-76
2022/01/24 04:38:24;;;;;;;15.48;6.25;;;;;;;-7.48;74.59;101602.06;4482175;31;35168;-76
2022/01/24 04:41:18;;;;;;;18.05;6.97;;;;;;;-7.55;73.94;101598.28;4482570;31;34603;-76
2022/01/24 04:44:18;;;;;;;18.65;6.85;;;;;;;-7.57;73.11;101605.56;4476896;31;36011;-76
2022/01/24 04:47:31;;;;;;;20.73;6.97;;;;;;;-7.96;73.76;101608.34;4483426;31;34656;-76
2022/01/24 04:50:43;;;;;;;20.35;6.45;;;;;;;-8.05;78.15;101609.16;4487556;31;34072;-77
2022/01/24 04:53:52;;;;;;;20.20;6.62;;;;;;;-7.48;75.56;101607.41;4483251;31;35604;-78
2022/01/24 04:56:41;;;;;;;19.65;5.60;;;;;;;-7.13;74.04;101605.84;4476134;31;35484;-78
2022/01/24 04:59:28;;;;;;;18.92;6.47;;;;;;;-7.01;73.32;101610.00;4483270;31;34596;-77
2022/01/24 05:02:15;;;;;;;17.50;6.40;;;;;;;-7.13;73.66;101606.69;4488365;31;33817;-78
2022/01/24 05:05:01;;;;;;;16.75;6.37;;;;;;;-7.28;73.68;101609.00;4484688;31;34406;-78
2022/01/24 05:07:50;;;;;;;16.45;6.22;;;;;;;-7.31;72.90;101611.97;4492549;31;34841;-78
2022/01/24 05:10:52;;;;;;;17.70;7.45;;;;;;;-7.53;73.66;101614.97;4476874;31;34665;-77
2022/01/24 05:26:09;;;;;;;19.37;7.72;;;;;;;-8.44;78.39;101630.47;4472059;31;35263;-77
2022/01/24 05:28:56;;;;;;;19.67;7.80;;;;;;;-8.13;78.57;101633.00;4476514;31;34778;-77
2022/01/24 05:31:42;;;;;;;19.30;7.25;;;;;;;-8.02;78.21;101625.69;4494381;31;34988;-78
2022/01/24 05:34:29;;;;;;;22.05;7.43;;;;;;;-7.40;74.64;101631.44;4479708;31;34673;-77
2022/01/24 05:37:15;;;;;;;17.33;7.93;;;;;;;-7.60;73.89;101641.31;4486847;31;34749;-77
2022/01/24 05:40:03;;;;;;;14.85;6.43;;;;;;;-7.73;73.17;101646.94;4490256;31;34663;-78
2022/01/24 05:42:49;;;;;;;19.55;7.55;;;;;;;-7.50;72.60;101641.31;4475297;31;35802;-78
2022/01/24 05:45:35;;;;;;;23.65;10.40;;;;;;;-7.36;72.53;101643.50;4480564;31;34621;-73
2022/01/24 05:48:24;;;;;;;21.37;9.18;;;;;;;-8.08;75.54;101638.69;4469923;31;35126;-73
2022/01/24 05:51:11;;;;;;;20.62;8.70;;;;;;;-7.70;74.94;101649.31;4477039;31;34192;-76
2022/01/24 05:53:57;;;;;;;21.02;8.48;;;;;;;-7.54;74.42;101646.09;4468961;31;34645;-76
2022/01/24 05:56:44;;;;;;;30.42;12.85;;;;;;;-8.84;80.42;101661.44;4472084;31;34117;-76
2022/01/24 05:59:30;;;;;;;19.52;8.00;;;;;;;-8.15;77.18;101665.88;4472799;31;34703;-76
2022/01/24 06:02:16;;;;;;;27.92;11.60;;;;;;;-8.05;78.02;101668.56;4476270;31;35557;-76
2022/01/24 06:05:06;;;;;;;26.50;10.55;;;;;;;-8.34;78.18;101663.19;4477012;31;35378;-76
2022/01/24 06:07:54;;;;;;;25.75;9.27;;;;;;;-7.77;74.12;101666.88;4481424;31;34232;-73
2022/01/24 06:10:41;;;;;;;19.23;7.93;;;;;;;-7.70;72.51;101667.13;4461520;31;35068;-73
2022/01/24 06:13:27;;;;;;;23.62;7.78;;;;;;;-7.75;72.54;101659.56;4476514;31;35129;-74
2022/01/24 06:16:15;;;;;;;19.77;8.13;;;;;;;-7.72;73.26;101667.25;4481269;31;35646;-75
2022/01/24 06:19:01;;;;;;;17.90;7.53;;;;;;;-7.53;72.25;101673.53;4488441;31;34798;-75
2022/01/24 06:21:50;;;;;;;20.60;8.52;;;;;;;-7.43;71.98;101673.50;4480214;31;35245;-75
2022/01/24 06:24:37;;;;;;;16.85;7.68;;;;;;;-7.39;71.84;101681.09;4486556;31;35577;-74
2022/01/24 06:27:41;;;;;;;23.62;7.80;;;;;;;-7.44;72.05;101678.00;4492080;31;35979;-72
2022/01/24 06:30:27;;;;;;;28.12;9.55;;;;;;;-7.60;72.18;101688.41;4465875;31;35464;-74
2022/01/24 06:33:13;;;;;;;24.33;9.45;;;;;;;-7.57;72.23;101694.31;4482830;31;33718;-74
2022/01/24 06:35:59;;;;;;;21.42;8.68;;;;;;;-7.49;72.23;101691.75;4481177;31;34651;-73
2022/01/24 06:38:46;;;;;;;20.92;8.68;;;;;;;-8.61;77.33;101703.75;4484315;31;34950;-74
2022/01/24 06:41:35;;;;;;;31.35;11.18;;;;;;;-8.65;77.21;101699.66;4489946;31;34641;-73
2022/01/24 06:44:21;;;;;;;24.70;9.70;;;;;;;-10.18;84.29;101705.59;4482370;31;35156;-72
2022/01/24 06:47:08;;;;;;;21.10;9.55;;;;;;;-8.82;82.52;101706.50;4474984;31;34309;-73
2022/01/24 06:49:54;;;;;;;26.27;13.07;;;;;;;-8.31;78.93;101708.16;4480455;31;36029;-73
2022/01/24 06:52:41;;;;;;;18.25;8.23;;;;;;;-7.98;76.42;101717.53;4468638;31;34205;-73
2022/01/24 06:55:27;;;;;;;19.67;7.80;;;;;;;-7.60;74.68;101717.69;4476282;31;33839;-73
2022/01/24 06:58:14;;;;;;;16.75;7.70;;;;;;;-7.40;73.66;101722.00;4482732;31;34743;-73
2022/01/24 07:01:08;;;;;;;19.05;7.55;;;;;;;-7.24;73.02;101726.75;4483967;31;35960;-74
2022/01/24 07:03:55;;;;;;;20.02;8.82;;;;;;;-7.11;72.52;101737.09;4465058;31;34549;-74
2022/01/24 07:06:41;;;;;;;22.65;9.43;;;;;;;-6.92;71.72;101731.69;4488689;31;34707;-75
2022/01/24 07:09:28;;;;;;;23.00;9.43;;;;;;;-6.91;71.91;101738.72;4492184;31;35154;-75
2022/01/24 07:12:14;;;;;;;21.00;8.25;;;;;;;-8.77;79.09;101735.28;4487098;31;34531;-74
2022/01/24 07:15:08;;;;;;;20.75;9.55;;;;;;;-9.33;82.90;101742.69;4479787;31;34856;-76
2022/01/24 07:18:57;;;;;;;20.98;7.43;;;;;;;-9.37;85.23;101743.09;4459614;31;34375;-76
2022/01/24 07:21:06;;;;;;;21.52;8.55;;;;;;;-8.09;81.71;101740.78;4474055;31;34166;-76
2022/01/24 07:23:52;;;;;;;17.62;8.00;;;;;;;-9.43;85.12;101748.91;4479106;31;34768;-74
2022/01/24 07:26:39;;;;;;;19.62;8.35;;;;;;;-8.75;84.39;101743.97;4483679;31;35385;-77
2022/01/24 07:29:25;;;;;;;20.05;9.55;;;;;;;-9.29;85.31;101759.22;4469132;31;34201;-75
2022/01/24 07:32:14;;;;;;;24.35;9.98;;;;;;;-9.31;85.92;101758.47;4472983;31;35401;-74
2022/01/24 07:35:01;;;;;;;23.33;8.95;;;;;;;-8.72;84.57;101757.84;4475270;31;35039;-75
2022/01/24 07:37:47;;;;;;;22.45;9.50;;;;;;;-7.95;80.78;101772.31;4490513;31;34311;-74
2022/01/24 07:40:38;;;;;;;19.80;8.65;;;;;;;-7.48;78.06;101772.50;4462621;31;33836;-74
2022/01/24 07:43:25;;;;;;;16.70;6.12;;;;;;;-8.24;79.53;101785.56;4475681;31;34531;-75
2022/01/24 07:46:11;;;;;;;20.00;7.65;;;;;;;-7.31;78.58;101779.75;4489280;31;35925;-73
2022/01/24 07:49:03;;;;;;;22.02;8.10;;;;;;;-8.12;81.49;101779.13;4488413;31;34671;-75
2022/01/24 07:51:52;;;;;;;22.67;8.13;;;;;;;-7.45;80.00;101785.50;4464155;31;35096;-76
2022/01/24 07:54:41;;;;;;;20.67;7.95;;;;;;;-6.94;77.11;101787.00;4486004;31;34669;-73
2022/01/24 07:57:28;;;;;;;18.50;7.97;;;;;;;-7.16;78.37;101782.81;4486749;31;34929;-73
2022/01/24 08:00:17;;;;;;;19.27;8.48;;;;;;;-7.01;76.88;101791.19;4485962;31;34404;-73
2022/01/24 08:03:05;;;;;;;23.10;9.32;;;;;;;-6.44;76.57;101791.16;4471835;31;34141;-74
2022/01/24 08:05:52;;;;;;;22.00;9.52;;;;;;;-5.61;73.78;101797.25;4470655;31;34614;-75
2022/01/24 08:08:39;;;;;;;28.75;13.20;;;;;;;-5.26;72.97;101795.56;4477145;31;34930;-72
2022/01/24 08:11:25;;;;;;;33.53;13.20;;;;;;;-6.08;72.94;101799.28;4484162;31;34727;-73
2022/01/24 08:14:12;;;;;;;27.33;11.60;;;;;;;-6.49;77.80;101802.25;4476232;31;35324;-74
2022/01/24 08:17:00;;;;;;;25.73;10.90;;;;;;;-5.68;75.13;101807.69;4482480;31;35499;-73
2022/01/24 08:19:46;;;;;;;27.73;13.27;;;;;;;-5.40;73.64;101802.31;4497482;31;35031;-73
2022/01/24 08:22:33;;;;;;;30.08;11.73;;;;;;;-5.42;72.61;101805.09;4480523;31;34998;-73
2022/01/24 08:25:19;;;;;;;32.15;10.85;;;;;;;-4.37;70.00;101800.66;4494747;31;35783;-74
2022/01/24 08:28:06;;;;;;;24.80;10.88;;;;;;;-4.84;71.02;101806.44;4477433;31;35676;-74
2022/01/24 08:30:53;;;;;;;22.50;10.07;;;;;;;-4.22;69.95;101808.09;4489222;31;34939;-74
2022/01/24 08:33:40;;;;;;;22.25;9.48;;;;;;;-3.51;67.65;101804.09;4478409;31;35472;-73
2022/01/24 08:36:26;;;;;;;19.75;9.45;;;;;;;-4.41;68.62;101811.84;4476163;31;104687;-74
2022/01/24 08:39:12;;;;;;;21.58;8.73;;;;;;;-4.36;69.79;101814.88;4473795;31;34652;-72
2022/01/24 08:42:12;;;;;;;20.70;9.70;;;;;;;-3.38;66.11;101814.34;4470957;31;35010;-72
2022/01/24 08:47:44;;;;;;;15.88;8.50;;;;;;;-3.97;67.97;101803.66;4486019;31;33951;-73
2022/01/24 08:50:31;;;;;;;20.98;9.95;;;;;;;-3.91;67.84;101819.09;4473430;31;34621;-73
2022/01/24 08:53:18;;;;;;;20.90;9.15;;;;;;;-2.86;65.70;101805.97;4484121;31;34698;-73
2022/01/24 08:56:07;;;;;;;25.25;10.75;;;;;;;-2.59;64.76;101807.41;4477593;31;34331;-72
2022/01/24 08:58:53;;;;;;;22.02;10.32;;;;;;;-2.15;64.36;101812.31;4485402;31;36317;-73
2022/01/24 09:01:39;;;;;;;24.42;10.75;;;;;;;-1.66;62.73;101812.91;4483468;31;34763;-73
2022/01/24 09:04:26;;;;;;;14.63;5.85;;;;;;;-1.96;62.70;101814.59;4470368;31;35020;-74
2022/01/24 09:07:16;;;;;;;18.92;5.47;;;;;;;-1.56;57.53;101812.69;4463946;31;35589;-72
2022/01/24 09:10:05;;;;;;;10.82;4.37;;;;;;;-1.22;56.05;101808.75;4473164;31;33870;-72
2022/01/24 09:12:52;;;;;;;12.13;5.25;;;;;;;-1.63;54.19;101812.56;4473863;31;33341;-72
2022/01/24 09:15:38;;;;;;;12.10;4.97;;;;;;;-1.90;54.19;101810.38;4487151;31;34940;-72
2022/01/24 09:18:25;;;;;;;11.77;4.28;;;;;;;-0.87;53.29;101812.66;4476570;31;35433;-72
2022/01/24 09:21:11;;;;;;;11.12;3.97;;;;;;;-1.36;51.53;101808.53;4474566;31;33769;-73
2022/01/24 09:23:57;;;;;;;13.05;4.25;;;;;;;-1.53;50.96;101817.72;4465162;31;34223;-73
2022/01/24 09:26:43;;;;;;;9.73;3.90;;;;;;;-0.56;50.67;101812.53;4485826;31;35866;-72
2022/01/24 09:29:30;;;;;;;9.00;4.43;;;;;;;-0.52;48.94;101816.50;4483261;31;34226;-73
2022/01/24 09:32:24;;;;;;;8.38;4.10;;;;;;;-0.37;48.26;101813.00;4459378;31;34173;-74
2022/01/24 09:35:11;;;;;;;10.20;4.65;;;;;;;-0.03;47.70;101818.66;4474076;31;34724;-73
2022/01/24 09:37:58;;;;;;;10.05;4.62;;;;;;;-0.36;48.40;101825.44;4474378;31;34888;-73
2022/01/24 09:40:44;;;;;;;9.80;3.72;;;;;;;0.24;47.32;101816.28;4484965;31;34329;-73
2022/01/24 09:43:34;;;;;;;10.95;3.95;;;;;;;0.08;46.91;101811.09;4479098;31;35040;-73
2022/01/24 09:46:28;;;;;;;9.75;4.28;;;;;;;0.10;47.27;101809.06;4472646;31;34628;-74
2022/01/24 09:49:15;;;;;;;11.90;4.37;;;;;;;0.48;45.52;101806.16;4485094;31;35633;-75
2022/01/24 09:52:01;;;;;;;11.32;4.50;;;;;;;0.43;45.41;101799.50;4485404;31;34364;-74
2022/01/24 09:54:48;;;;;;;15.23;3.90;;;;;;;0.41;45.41;101798.84;4481558;31;33818;-74
2022/01/24 09:57:34;;;;;;;8.30;3.72;;;;;;;0.82;44.77;101786.59;4480346;31;34628;-74
2022/01/24 10:00:24;;;;;;;8.88;3.53;;;;;;;0.86;44.19;101787.88;4484026;31;33515;-74
2022/01/24 10:03:12;;;;;;;9.70;3.95;;;;;;;1.02;42.91;101790.28;4481929;31;36090;-74
2022/01/24 10:06:17;;;;;;;9.20;4.45;;;;;;;1.05;42.65;101789.91;4479380;31;33920;-71
2022/01/24 10:09:07;;;;;;;8.88;4.35;;;;;;;0.88;44.23;101791.19;4472253;31;34386;-71
2022/01/24 10:12:06;;;;;;;9.50;3.60;;;;;;;0.80;42.79;101789.50;4473705;31;35075;-72
2022/01/24 10:18:08;;;;;;;9.23;3.37;;;;;;;1.20;41.99;101791.69;4472190;31;34979;-71
2022/01/24 10:20:56;;;;;;;9.23;3.50;;;;;;;1.22;42.09;101779.63;4470721;31;34158;-71
2022/01/24 10:23:43;;;;;;;9.82;4.30;;;;;;;1.09;42.85;101782.25;4475909;31;35537;-73
2022/01/24 10:26:30;;;;;;;10.73;3.28;;;;;;;1.39;42.19;101784.75;4485043;31;34371;-73
2022/01/24 10:29:17;;;;;;;10.65;4.37;;;;;;;1.41;40.51;101785.38;4471556;31;34104;-73
2022/01/24 10:32:03;;;;;;;10.13;3.47;;;;;;;1.13;42.55;101786.22;4482424;31;34697;-73
2022/01/24 10:34:50;;;;;;;8.43;3.40;;;;;;;1.67;41.79;101780.13;4487553;31;35715;-73
2022/01/24 10:37:36;;;;;;;9.77;3.20;;;;;;;1.24;42.85;101776.75;4482633;31;34136;-73
2022/01/24 10:40:46;;;;;;;9.77;3.62;;;;;;;1.12;41.25;101779.16;4480948;31;34626;-73
2022/01/24 10:43:34;;;;;;;6.32;3.12;;;;;;;2.43;39.33;101785.44;4479951;31;35486;-72
2022/01/24 10:46:25;;;;;;;9.57;3.75;;;;;;;2.68;37.50;101782.97;4472691;31;34534;-73
2022/01/24 10:49:13;;;;;;;8.38;3.53;;;;;;;2.88;36.87;101777.59;4476322;31;34643;-72
2022/01/24 10:52:09;;;;;;;10.75;3.78;;;;;;;2.48;37.12;101776.72;4479914;31;34219;-72
2022/01/24 10:55:17;;;;;;;9.60;3.53;;;;;;;2.01;38.48;101776.53;4479329;31;34658;-72
2022/01/24 10:58:09;;;;;;;7.37;3.30;;;;;;;1.34;39.07;101775.38;4481111;31;35946;-72
2022/01/24 11:00:56;;;;;;;9.95;3.95;;;;;;;1.32;40.72;101766.63;4474366;31;34527;-72
2022/01/24 11:03:42;;;;;;;7.68;3.33;;;;;;;1.29;40.41;101764.31;4482555;31;34009;-72
2022/01/24 11:06:35;;;;;;;9.20;4.05;;;;;;;1.35;39.75;101768.94;4482795;31;34254;-72
2022/01/24 11:09:25;;;;;;;9.25;4.45;;;;;;;-0.80;44.19;101772.37;4475279;31;35850;-72
2022/01/24 11:12:13;;;;;;;7.53;3.30;;;;;;;-0.42;43.70;101766.94;4478915;31;34201;-72
2022/01/24 11:14:59;;;;;;;9.50;3.55;;;;;;;-0.15;43.17;101757.34;4474973;31;32866;-72
2022/01/24 11:17:46;;;;;;;10.55;4.40;;;;;;;-0.78;45.10;101760.41;4484032;31;35099;-72
2022/01/24 11:20:35;;;;;;;8.27;3.47;;;;;;;0.42;43.80;101760.06;4479407;31;34798;-72
2022/01/24 11:23:22;;;;;;;7.95;3.50;;;;;;;0.38;42.10;101771.44;4470297;31;34531;-73
2022/01/24 11:26:11;;;;;;;7.62;3.30;;;;;;;-0.30;43.82;101770.84;4479269;31;35117;-73
2022/01/24 11:28:57;;;;;;;8.82;3.83;;;;;;;0.42;42.52;101770.84;4482512;31;35259;-72
2022/01/24 11:31:49;;;;;;;12.82;4.40;;;;;;;-0.94;44.68;101774.03;4478249;31;34868;-72
2022/01/24 11:34:38;;;;;;;8.35;3.53;;;;;;;-1.07;44.84;101769.28;4483338;31;34536;-72
2022/01/24 11:37:38;;;;;;;10.65;3.92;;;;;;;-0.82;45.20;101767.19;4455305;32;34195;-72
2022/01/24 11:40:26;;;;;;;7.50;3.35;;;;;;;-1.21;46.19;101768.22;4453794;32;35332;-72
2022/01/24 11:43:34;;;;;;;9.68;3.78;;;;;;;-0.99;45.39;101755.75;4450722;32;35605;-71
2022/01/24 11:46:46;;;;;;;8.82;4.03;;;;;;;-1.13;46.51;101764.63;4462031;32;33577;-72
2022/01/24 11:49:38;;;;;;;11.25;3.90;;;;;;;-1.23;46.22;101751.41;4462313;32;33151;-72
2022/01/24 11:52:33;;;;;;;11.40;4.10;;;;;;;-1.05;45.91;101740.34;4448553;32;35507;-70
2022/01/24 11:55:34;;;;;;;10.15;4.07;;;;;;;-0.27;44.53;101738.94;4460602;32;34959;-71
2022/01/24 11:58:26;;;;;;;9.68;4.05;;;;;;;-0.55;45.16;101741.47;4455908;32;34883;-70
2022/01/24 12:01:19;;;;;;;8.85;3.97;;;;;;;0.08;43.68;101743.72;4459071;32;35255;-71
2022/01/24 12:04:06;;;;;;;11.18;4.53;;;;;;;-0.14;44.27;101743.69;4454031;32;34601;-72
2022/01/24 12:07:31;;;;;;;10.32;4.20;;;;;;;0.36;42.66;101728.47;4458787;32;34948;-75
2022/01/24 12:10:23;;;;;;;8.07;4.05;;;;;;;0.64;42.92;101735.78;4448517;32;34188;-74
2022/01/24 12:13:39;;;;;;;10.45;3.58;;;;;;;0.79;42.07;101725.72;4451273;32;34137;-75
2022/01/24 12:16:36;;;;;;;12.20;4.20;;;;;;;0.55;41.54;101724.28;4455945;32;35131;-73
2022/01/24 12:19:31;;;;;;;9.57;3.72;;;;;;;0.39;41.79;101721.84;4456073;32;34541;-72
2022/01/24 12:22:36;;;;;;;11.27;4.00;;;;;;;0.74;41.89;101713.84;4456538;32;34594;-72
2022/01/24 12:26:02;;;;;;;11.23;4.07;;;;;;;0.00;43.26;101723.12;4459786;32;33646;-72
2022/01/24 12:29:01;;;;;;;10.52;4.05;;;;;;;1.20;41.63;101727.72;4461334;32;34594;-72
2022/01/24 12:31:59;;;;;;;10.23;4.60;;;;;;;0.09;42.24;101723.84;4462323;32;34844;-72
2022/01/24 12:34:46;;;;;;;7.72;3.62;;;;;;;0.39;43.30;101724.56;4458802;32;35493;-72
2022/01/24 12:37:32;;;;;;;11.15;4.57;;;;;;;0.88;41.10;101721.87;4482649;31;33595;-72
2022/01/24 12:40:27;;;;;;;12.43;5.28;;;;;;;-0.10;43.29;101725.28;4486274;31;33578;-70
2022/01/24 12:43:29;;;;;;;13.32;5.72;;;;;;;0.45;42.97;101711.13;4464333;31;34875;-74
2022/01/24 12:46:20;;;;;;;14.32;7.03;;;;;;;-0.32;43.77;101719.00;4478142;31;34409;-73
2022/01/24 12:49:07;;;;;;;13.82;4.45;;;;;;;-0.63;45.22;101727.28;4475115;31;33892;-73
2022/01/24 12:51:54;;;;;;;11.20;4.68;;;;;;;-0.93;45.46;101716.50;4487364;31;34303;-74
2022/01/24 12:54:46;;;;;;;13.38;5.07;;;;;;;-1.26;47.14;101710.59;4485078;31;34473;-74
2022/01/24 12:57:40;;;;;;;12.73;6.70;;;;;;;-1.00;48.48;101710.19;4473415;31;34455;-74
2022/01/24 13:00:29;;;;;;;12.77;6.07;;;;;;;-1.47;48.98;101722.88;4477462;31;34726;-73
2022/01/24 13:03:16;;;;;;;12.48;5.12;;;;;;;-1.09;49.86;101720.19;4494584;31;34587;-73
2022/01/24 13:06:15;;;;;;;14.80;5.90;;;;;;;-0.95;49.36;101718.53;4484301;31;35642;-75
2022/01/24 13:09:14;;;;;;;11.35;4.78;;;;;;;-1.23;49.64;101715.63;4482238;31;34635;-74
2022/01/24 13:12:04;;;;;;;15.13;6.70;;;;;;;-0.72;48.64;101711.22;4489172;31;34125;-73
2022/01/24 13:14:57;;;;;;;11.48;4.82;;;;;;;-1.15;49.46;101704.78;4482194;31;34535;-74
2022/01/24 13:23:59;;;;;;;12.02;5.28;;;;;;;-0.70;48.29;101708.34;4485448;31;34345;-73
2022/01/24 13:26:47;;;;;;;11.73;4.90;;;;;;;-0.43;46.87;101711.37;4469376;31;34261;-72
2022/01/24 13:29:38;;;;;;;12.20;5.80;;;;;;;-1.24;48.43;101708.59;4492128;31;35972;-74
2022/01/24 13:32:42;;;;;;;;;;;;;;;-0.74;48.30;101715.09;4484314;31;35475;-74
2022/01/24 13:35:31;;;;;;;15.43;5.12;;;;;;;-0.03;46.75;101710.00;4473326;31;34010;-73
2022/01/24 13:38:41;;;;;;;15.18;7.30;;;;;;;-0.08;46.10;101715.16;4489506;31;35544;-73
2022/01/24 13:41:28;;;;;;;12.37;5.62;;;;;;;-0.60;47.76;101716.97;4481034;31;34525;-72
2022/01/24 13:44:14;;;;;;;10.55;5.78;;;;;;;-0.56;47.74;101717.44;4492969;31;34632;-72
2022/01/24 13:47:08;;;;;;;9.75;4.95;;;;;;;-1.06;48.46;101711.75;4481327;31;34838;-72
2022/01/24 13:49:54;;;;;;;10.68;4.40;;;;;;;-0.62;48.29;101721.72;4478350;31;34690;-71
2022/01/24 13:52:48;;;;;;;12.90;5.00;;;;;;;-0.80;48.71;101715.84;4486482;31;34576;-73
2022/01/24 13:55:40;;;;;;;11.95;5.82;;;;;;;-0.46;47.32;101713.44;4478426;31;34783;-73
2022/01/24 13:58:27;;;;;;;12.35;5.10;;;;;;;-0.35;47.92;101709.41;4478545;31;35296;-73
2022/01/24 14:01:14;;;;;;;11.70;5.20;;;;;;;-1.17;49.27;101707.69;4484629;31;34647;-74
2022/01/24 14:04:04;;;;;;;14.52;5.55;;;;;;;-0.99;49.19;101706.50;4482942;31;34700;-72
2022/01/24 14:06:55;;;;;;;10.40;4.65;;;;;;;-0.88;49.62;101703.34;4474374;31;34768;-72
2022/01/24 14:09:55;;;;;;;14.93;6.03;;;;;;;-0.25;47.90;101703.75;4477444;31;34134;-73
2022/01/24 14:12:44;;;;;;;14.32;5.45;;;;;;;-0.69;48.54;101713.53;4490352;31;35487;-72
2022/01/24 14:16:00;;;;;;;9.88;4.50;;;;;;;-0.74;49.27;101707.91;4485050;31;35869;-72
2022/01/24 14:18:59;;;;;;;11.00;5.07;;;;;;;-0.63;48.31;101714.66;4486712;31;35009;-71
2022/01/24 14:22:01;;;;;;;12.35;5.72;;;;;;;-0.82;49.09;101713.38;4486695;31;34147;-72
2022/01/24 14:24:56;;;;;;;13.95;5.78;;;;;;;-0.97;49.40;101710.66;4482447;31;32949;-71
2022/01/24 14:27:51;;;;;;;14.40;5.80;;;;;;;-0.73;49.46;101704.16;4476778;31;34934;-70
2022/01/24 14:30:47;;;;;;;19.55;6.28;;;;;;;-0.65;48.92;101705.94;4494429;31;34487;-69
2022/01/24 14:33:35;;;;;;;14.18;4.97;;;;;;;-1.06;51.16;101705.53;4483342;31;34163;-70
2022/01/24 14:36:21;;;;;;;12.98;5.57;;;;;;;-0.83;49.85;101708.16;4483070;31;35205;-70